Time;durP1;ratioP1;P1;durP2;ratioP2;P2;SDS_P1;SDS_P2;PMS_P1;PMS_P2;Temp;Humidity;BMP_temperature;BMP_pressure;BME280_temperature;BME280_humidity;BME280_pressure;Samples;Min_cycle;Max_cycle;Signal;HPM_P1;HPM_P2
2023/03/15 00:00:42;;;;;;;;;;;;;;;24.61;40.99;95772.56;588626;241;63037;-59
2023/03/15 00:03:10;;;;;;;;;;;;;;;24.60;42.03;95776.34;588635;241;65071;-59
2023/03/15 00:05:39;;;;;;;;;;;;;;;24.61;41.64;95769.06;588635;241;64996;-59
2023/03/15 00:08:06;;;;;;;;;;;;;;;24.61;41.49;95763.69;588531;241;62960;-59
2023/03/15 00:10:34;;;;;;;;;;;;;;;24.61;41.91;95763.69;588569;241;67309;-59
2023/03/15 00:13:01;;;;;;;;;;;;;;;24.58;43.68;95747.13;588621;241;67050;-59
2023/03/15 00:15:29;;;;;;;;;;;;;;;24.59;43.54;95756.75;588636;241;65094;-63
2023/03/15 00:17:57;;;;;;;;;;;;;;;24.58;42.36;95749.00;588639;241;67188;-64
2023/03/15 00:20:24;;;;;;;;;;;;;;;24.57;40.24;95737.48;588581;241;64930;-64
2023/03/15 00:22:52;;;;;;;;;;;;;;;24.58;42.95;95738.27;588596;241;65186;-64
2023/03/15 00:25:19;;;;;;;;;;;;;;;24.57;42.09;95725.95;588601;241;65296;-64
2023/03/15 00:27:47;;;;;;;;;;;;;;;24.56;43.31;95735.92;588619;241;64937;-64
2023/03/15 00:30:14;;;;;;;;;;;;;;;24.56;41.58;95732.45;588670;241;62730;-64
2023/03/15 00:32:42;;;;;;;;;;;;;;;24.55;41.24;95726.30;588613;241;67287;-64
2023/03/15 00:35:11;;;;;;;;;;;;;;;24.55;43.88;95720.92;588574;241;67074;-64
2023/03/15 00:37:39;;;;;;;;;;;;;;;24.53;44.11;95715.08;593144;239;62985;-64
2023/03/15 00:40:07;;;;;;;;;;;;;;;24.53;42.03;95715.08;594246;239;67125;-64
2023/03/15 00:42:35;;;;;;;;;;;;;;;24.53;44.27;95708.93;594311;239;67122;-64
2023/03/15 00:45:02;;;;;;;;;;;;;;;24.52;41.72;95702.75;594254;239;65041;-64
2023/03/15 00:47:30;;;;;;;;;;;;;;;24.52;43.18;95691.22;594186;239;67266;-64
2023/03/15 00:49:57;;;;;;;;;;;;;;;24.51;41.76;95693.13;594240;239;66932;-64
2023/03/15 00:52:25;;;;;;;;;;;;;;;24.51;42.95;95709.25;594242;239;65061;-64
2023/03/15 00:54:53;;;;;;;;;;;;;;;24.51;42.05;95684.30;594291;239;67137;-64
2023/03/15 00:57:21;;;;;;;;;;;;;;;24.50;42.30;95688.07;594252;238;67459;-64
2023/03/15 00:59:51;;;;;;;;;;;;;;;24.50;43.58;95685.39;594268;239;64992;-64
2023/03/15 01:02:21;;;;;;;;;;;;;;;24.49;42.81;95684.60;594211;239;67240;-64
2023/03/15 01:04:48;;;;;;;;;;;;;;;24.49;40.73;95683.82;594320;239;66970;-64
2023/03/15 01:07:15;;;;;;;;;;;;;;;24.48;42.40;95690.31;594328;239;64941;-59
2023/03/15 01:09:44;;;;;;;;;;;;;;;24.48;44.17;95691.09;594334;239;67286;-59
2023/03/15 01:12:11;;;;;;;;;;;;;;;24.47;45.09;95686.84;594235;239;66155;-59
2023/03/15 01:14:39;;;;;;;;;;;;;;;24.47;44.48;95689.53;594213;239;62592;-64
2023/03/15 01:17:07;;;;;;;;;;;;;;;24.46;42.26;95687.94;594264;239;67291;-64
2023/03/15 01:19:35;;;;;;;;;;;;;;;24.46;43.04;95676.42;594276;239;65664;-64
2023/03/15 01:22:02;;;;;;;;;;;;;;;24.45;41.96;95674.86;594328;239;62739;-64
2023/03/15 01:24:30;;;;;;;;;;;;;;;24.45;42.18;95681.02;594282;239;65807;-64
2023/03/15 01:26:57;;;;;;;;;;;;;;;24.44;42.84;95682.11;594271;239;67681;-64
2023/03/15 01:29:25;;;;;;;;;;;;;;;24.45;42.48;95681.02;594281;239;62789;-64
2023/03/15 01:31:52;;;;;;;;;;;;;;;24.45;44.25;95685.59;594269;238;64736;-64
2023/03/15 01:34:20;;;;;;;;;;;;;;;24.43;42.07;95675.14;594318;239;64868;-64
2023/03/15 01:36:51;;;;;;;;;;;;;;;24.43;42.08;95682.41;587420;239;65037;-64
2023/03/15 01:39:18;;;;;;;;;;;;;;;24.42;43.49;95676.27;593119;239;67520;-64
2023/03/15 01:41:47;;;;;;;;;;;;;;;24.42;41.89;95678.95;593096;239;67518;-59
2023/03/15 01:44:18;;;;;;;;;;;;;;;24.41;41.09;95677.36;593130;239;62738;-59
2023/03/15 01:46:47;;;;;;;;;;;;;;;24.42;42.21;95676.27;593149;239;65802;-60
2023/03/15 01:49:21;;;;;;;;;;;;;;;24.40;41.58;95677.70;592907;239;46693;-58
2023/03/15 01:51:50;;;;;;;;;;;;;;;24.39;42.28;95682.29;593029;239;65049;-57
2023/03/15 01:54:32;;;;;;;;;;;;;;;24.39;43.72;95679.61;593087;239;64712;-58
2023/03/15 01:57:01;;;;;;;;;;;;;;;24.39;42.05;95693.03;593113;239;64665;-59
2023/03/15 01:59:30;;;;;;;;;;;;;;;24.40;44.27;95693.81;593060;239;63057;-59
2023/03/15 02:01:59;;;;;;;;;;;;;;;24.38;43.17;95694.13;592998;239;67784;-59
2023/03/15 02:04:29;;;;;;;;;;;;;;;24.37;43.57;95698.71;593133;239;64625;-59
2023/03/15 02:06:58;;;;;;;;;;;;;;;24.37;42.93;95701.39;588181;239;64117;-59
2023/03/15 02:09:28;;;;;;;;;;;;;;;24.36;42.04;95699.02;593113;239;67211;-59
2023/03/15 02:11:57;;;;;;;;;;;;;;;24.36;43.22;95704.39;592467;239;66844;-59
2023/03/15 02:14:24;;;;;;;;;;;;;;;24.34;42.71;95704.73;593113;239;63033;-64
2023/03/15 02:16:52;;;;;;;;;;;;;;;24.34;44.38;95703.95;593160;239;67318;-64
2023/03/15 02:19:30;;;;;;;;;;;;;;;24.34;46.23;95706.63;593095;239;66654;-64
2023/03/15 02:21:59;;;;;;;;;;;;;;;24.34;41.95;95706.63;582228;242;65014;-64
2023/03/15 02:24:31;;;;;;;;;;;;;;;24.33;43.95;95707.73;592876;239;67400;-64
2023/03/15 02:26:59;;;;;;;;;;;;;;;24.33;44.51;95707.73;593072;239;65421;-64
2023/03/15 02:29:28;;;;;;;;;;;;;;;24.32;44.16;95703.48;593159;239;64924;-64
2023/03/15 02:31:57;;;;;;;;;;;;;;;24.32;42.01;95714.22;593099;239;65102;-64
2023/03/15 02:34:25;;;;;;;;;;;;;;;24.32;42.95;95714.22;593110;239;67002;-64
2023/03/15 02:36:54;;;;;;;;;;;;;;;24.31;44.23;95720.71;590900;239;65993;-64
2023/03/15 02:39:22;;;;;;;;;;;;;;;24.28;42.17;95708.72;588582;241;65724;-64
2023/03/15 02:41:51;;;;;;;;;;;;;;;24.30;43.45;95713.75;588625;241;67099;-64
2023/03/15 02:44:21;;;;;;;;;;;;;;;24.29;42.45;95701.45;588454;241;64959;-64
2023/03/15 02:46:50;;;;;;;;;;;;;;;24.28;44.21;95702.53;588605;241;66927;-64
2023/03/15 02:49:20;;;;;;;;;;;;;;;24.27;42.22;95707.12;588645;241;43453;-64
2023/03/15 02:51:48;;;;;;;;;;;;;;;24.27;46.21;95709.03;588598;241;65773;-64
2023/03/15 02:54:17;;;;;;;;;;;;;;;24.27;43.65;95700.98;588620;241;68229;-64
2023/03/15 02:56:45;;;;;;;;;;;;;;;24.26;43.26;95699.41;588655;241;64602;-64
2023/03/15 02:59:12;;;;;;;;;;;;;;;24.26;45.32;95702.09;588608;241;65165;-64
2023/03/15 03:01:40;;;;;;;;;;;;;;;24.25;45.12;95697.82;588620;241;67865;-64
2023/03/15 03:04:08;;;;;;;;;;;;;;;24.24;42.98;95697.04;588650;241;67767;-64
2023/03/15 03:06:35;;;;;;;;;;;;;;;24.24;43.24;95702.41;588632;241;62940;-64
2023/03/15 03:09:03;;;;;;;;;;;;;;;24.24;45.48;95697.04;588688;241;68087;-64
2023/03/15 03:11:31;;;;;;;;;;;;;;;24.23;45.04;95695.47;588607;241;67104;-64
2023/03/15 03:13:59;;;;;;;;;;;;;;;24.23;44.69;95695.47;588629;241;62929;-64
2023/03/15 03:16:27;;;;;;;;;;;;;;;24.21;46.26;95678.12;588592;241;67717;-64
2023/03/15 03:18:54;;;;;;;;;;;;;;;24.20;42.38;95685.39;588621;241;66924;-64
2023/03/15 03:21:21;;;;;;;;;;;;;;;24.20;43.19;95676.52;588617;241;63835;-64
2023/03/15 03:23:50;;;;;;;;;;;;;;;24.19;42.42;95681.11;588585;241;68050;-64
2023/03/15 03:26:18;;;;;;;;;;;;;;;24.19;42.68;95685.70;588622;241;64893;-64
2023/03/15 03:28:48;;;;;;;;;;;;;;;24.18;43.61;95682.23;588625;241;65165;-64
2023/03/15 03:31:17;;;;;;;;;;;;;;;24.18;44.99;95676.08;588595;241;67298;-64
2023/03/15 03:33:45;;;;;;;;;;;;;;;24.17;44.80;95679.86;588623;241;65051;-62
2023/03/15 03:36:12;;;;;;;;;;;;;;;24.17;43.84;95680.64;589748;239;65230;-58
2023/03/15 03:38:42;;;;;;;;;;;;;;;24.17;44.49;95677.17;593381;238;67654;-58
2023/03/15 03:41:11;;;;;;;;;;;;;;;24.16;45.54;95673.71;593345;239;64761;-58
2023/03/15 03:43:39;;;;;;;;;;;;;;;24.14;45.35;95676.73;593743;239;66127;-58
2023/03/15 03:46:07;;;;;;;;;;;;;;;24.14;45.41;95671.36;593785;239;67642;-58
2023/03/15 03:48:36;;;;;;;;;;;;;;;24.13;43.39;95677.83;593868;239;44012;-58
2023/03/15 03:51:04;;;;;;;;;;;;;;;24.12;43.50;95673.58;593722;239;63062;-58
2023/03/15 03:53:31;;;;;;;;;;;;;;;24.12;45.24;95678.95;594278;239;67024;-58
2023/03/15 03:56:02;;;;;;;;;;;;;;;24.11;45.47;95682.72;594244;239;67051;-58
2023/03/15 03:58:29;;;;;;;;;;;;;;;24.11;42.86;95674.67;594236;239;66686;-59
2023/03/15 04:00:59;;;;;;;;;;;;;;;24.10;45.69;95670.42;593856;239;49417;-59
2023/03/15 04:03:27;;;;;;;;;;;;;;;24.10;44.63;95678.48;594260;239;66984;-59
2023/03/15 04:05:57;;;;;;;;;;;;;;;24.09;43.52;95671.55;593894;239;42636;-59
2023/03/15 04:08:26;;;;;;;;;;;;;;;24.08;43.23;95678.00;594249;239;68000;-64
2023/03/15 04:10:55;;;;;;;;;;;;;;;24.09;46.21;95679.59;594242;239;67112;-64
2023/03/15 04:13:25;;;;;;;;;;;;;;;24.08;44.56;95678.00;594226;239;65860;-64
2023/03/15 04:16:00;;;;;;;;;;;;;;;24.07;44.52;95673.75;594284;239;67922;-64
2023/03/15 04:18:23;;;;;;;;;;;;;;;24.07;44.35;95675.66;593916;239;67070;-64
2023/03/15 04:20:53;;;;;;;;;;;;;;;24.07;45.82;95675.66;594256;239;62495;-64
2023/03/15 04:23:21;;;;;;;;;;;;;;;24.05;43.03;95670.60;594245;239;64624;-64
2023/03/15 04:25:54;;;;;;;;;;;;;;;24.06;46.58;95674.88;593961;239;44276;-63
2023/03/15 04:28:39;;;;;;;;;;;;;;;24.04;46.87;95666.36;594333;239;40420;-63
2023/03/15 04:31:17;;;;;;;;;;;;;;;24.04;44.10;95676.30;593495;239;45982;-63
2023/03/15 04:34:01;;;;;;;;;;;;;;;24.03;45.40;95675.50;593650;237;45210;-64
2023/03/15 04:36:41;;;;;;;;;;;;;;;24.02;45.54;95676.62;591260;239;44581;-63
2023/03/15 04:39:11;;;;;;;;;;;;;;;24.02;45.03;95673.16;588697;241;49189;-63
2023/03/15 04:41:46;;;;;;;;;;;;;;;24.00;43.68;95670.78;582082;241;49200;-63
2023/03/15 04:44:25;;;;;;;;;;;;;;;24.01;44.14;95672.37;587823;241;47361;-63
2023/03/15 04:47:01;;;;;;;;;;;;;;;23.99;44.17;95669.22;588700;241;48000;-63
2023/03/15 04:49:47;;;;;;;;;;;;;;;24.00;46.16;95670.78;588745;241;42526;-63
2023/03/15 04:52:16;;;;;;;;;;;;;;;23.99;47.40;95663.06;588292;241;43515;-63
2023/03/15 04:54:45;;;;;;;;;;;;;;;23.97;43.90;95663.38;588450;241;44445;-63
2023/03/15 04:57:18;;;;;;;;;;;;;;;23.97;44.45;95660.69;588059;241;50024;-63
2023/03/15 05:00:10;;;;;;;;;;;;;;;23.96;45.68;95661.81;588324;241;43075;-59
2023/03/15 05:02:40;;;;;;;;;;;;;;;23.96;45.02;95653.77;587907;238;50571;-59
2023/03/15 05:05:12;;;;;;;;;;;;;;;23.96;46.60;95655.66;588414;241;46614;-59
2023/03/15 05:07:56;;;;;;;;;;;;;;;23.93;43.83;95649.05;588327;241;43827;-59
2023/03/15 05:10:32;;;;;;;;;;;;;;;23.93;44.88;95654.41;588748;241;49057;-59
2023/03/15 05:13:04;;;;;;;;;;;;;;;23.93;43.35;95665.14;588162;241;49081;-58
2023/03/15 05:15:39;;;;;;;;;;;;;;;23.93;45.64;95665.14;588271;241;44838;-59
2023/03/15 05:18:15;;;;;;;;;;;;;;;23.92;46.06;95656.28;581922;241;49047;-58
2023/03/15 05:20:59;;;;;;;;;;;;;;;23.92;47.52;95653.60;583177;241;49142;-59
2023/03/15 05:23:32;;;;;;;;;;;;;;;23.91;45.71;95652.04;580807;241;46129;-59
2023/03/15 05:26:05;;;;;;;;;;;;;;;23.90;44.30;95647.02;588743;240;49867;-59
2023/03/15 05:28:51;;;;;;;;;;;;;;;23.91;45.19;95640.52;588080;241;50267;-58
2023/03/15 05:31:26;;;;;;;;;;;;;;;23.89;45.51;95637.37;587821;238;46065;-59
2023/03/15 05:34:05;;;;;;;;;;;;;;;23.89;43.20;95637.37;588406;241;45373;-60
2023/03/15 05:36:37;;;;;;;;;;;;;;;23.88;46.60;95636.59;588677;239;48938;-59
2023/03/15 05:39:21;;;;;;;;;;;;;;;23.88;44.73;95635.81;579768;241;47358;-59
2023/03/15 05:41:58;;;;;;;;;;;;;;;23.87;43.30;95642.27;588202;241;46431;-59
2023/03/15 05:44:37;;;;;;;;;;;;;;;23.86;46.14;95640.70;584089;238;48623;-58
2023/03/15 05:47:25;;;;;;;;;;;;;;;23.87;45.06;95639.58;588739;241;48057;-59
2023/03/15 05:50:09;;;;;;;;;;;;;;;23.85;45.27;95636.45;588590;241;45059;-58
2023/03/15 05:52:41;;;;;;;;;;;;;;;23.85;46.49;95633.77;580808;241;48049;-58
2023/03/15 05:55:11;;;;;;;;;;;;;;;23.84;45.11;95629.50;588384;241;44318;-59
2023/03/15 05:57:43;;;;;;;;;;;;;;;23.83;44.63;95638.67;587231;241;47969;-59
2023/03/15 06:00:14;;;;;;;;;;;;;;;23.84;47.33;95626.81;575312;245;46835;-58
2023/03/15 06:02:41;;;;;;;;;;;;;;;23.83;47.31;95622.57;584779;241;64458;-59
2023/03/15 06:05:16;;;;;;;;;;;;;;;23.83;43.76;95636.77;583475;241;48264;-59
2023/03/15 06:07:45;;;;;;;;;;;;;;;23.83;44.29;95638.67;588646;241;67426;-60
2023/03/15 06:10:13;;;;;;;;;;;;;;;23.83;42.94;95627.94;588624;241;66111;-59
2023/03/15 06:12:41;;;;;;;;;;;;;;;23.83;45.61;95631.40;588615;241;64806;-59
2023/03/15 06:15:08;;;;;;;;;;;;;;;23.82;44.09;95626.37;588607;241;65447;-59
2023/03/15 06:17:36;;;;;;;;;;;;;;;23.83;46.12;95619.89;588673;241;65036;-59
2023/03/15 06:20:04;;;;;;;;;;;;;;;23.82;47.96;95621.01;588629;241;67049;-59
2023/03/15 06:22:31;;;;;;;;;;;;;;;23.83;48.65;95619.89;588606;241;67055;-59
2023/03/15 06:25:02;;;;;;;;;;;;;;;23.83;44.96;95619.89;588577;241;46838;-60
2023/03/15 06:27:30;;;;;;;;;;;;;;;23.83;44.76;95614.52;588598;241;67252;-59
2023/03/15 06:29:58;;;;;;;;;;;;;;;23.82;45.26;95616.42;588685;241;64651;-59
2023/03/15 06:32:25;;;;;;;;;;;;;;;23.82;44.33;95615.64;588653;241;65044;-59
2023/03/15 06:34:53;;;;;;;;;;;;;;;23.82;44.93;95604.91;588635;241;64620;-59
2023/03/15 06:37:21;;;;;;;;;;;;;;;23.82;45.31;95604.91;588579;237;64740;-59
2023/03/15 06:39:49;;;;;;;;;;;;;;;23.82;45.65;95605.70;588560;241;65881;-59
2023/03/15 06:42:17;;;;;;;;;;;;;;;23.82;46.10;95611.06;588682;241;66484;-59
2023/03/15 06:44:45;;;;;;;;;;;;;;;23.82;45.72;95602.23;588653;238;64573;-59
2023/03/15 06:47:13;;;;;;;;;;;;;;;23.81;44.85;95598.73;588621;241;65013;-59
2023/03/15 06:49:41;;;;;;;;;;;;;;;23.81;42.08;95593.38;588631;241;64520;-59
2023/03/15 06:52:10;;;;;;;;;;;;;;;23.81;42.70;95598.73;583048;241;68299;-59
2023/03/15 06:54:38;;;;;;;;;;;;;;;23.80;44.14;95597.17;588629;241;64501;-59
2023/03/15 06:57:06;;;;;;;;;;;;;;;23.81;43.89;95593.38;588684;241;65058;-59
2023/03/15 06:59:34;;;;;;;;;;;;;;;23.81;43.48;95596.05;588538;241;64818;-59
2023/03/15 07:02:01;;;;;;;;;;;;;;;23.83;42.98;95595.75;588612;241;62798;-59
2023/03/15 07:04:28;;;;;;;;;;;;;;;23.83;44.90;95580.43;587963;241;65114;-63
2023/03/15 07:06:56;;;;;;;;;;;;;;;23.84;43.29;95591.94;588584;241;65111;-59
2023/03/15 07:09:23;;;;;;;;;;;;;;;23.83;43.49;95587.70;588666;241;65025;-59
2023/03/15 07:11:53;;;;;;;;;;;;;;;23.82;43.84;95578.87;583053;241;46937;-59
2023/03/15 07:14:21;;;;;;;;;;;;;;;23.83;40.82;95585.02;589481;240;65011;-59
2023/03/15 07:16:48;;;;;;;;;;;;;;;23.83;44.67;95582.33;590994;240;65836;-60
2023/03/15 07:19:17;;;;;;;;;;;;;;;23.83;47.91;95587.70;590965;240;67320;-59
2023/03/15 07:21:44;;;;;;;;;;;;;;;23.82;45.26;95588.81;591113;240;64483;-59
2023/03/15 07:24:14;;;;;;;;;;;;;;;23.82;44.80;95575.41;591101;240;45017;-59
2023/03/15 07:26:41;;;;;;;;;;;;;;;23.82;44.61;95572.72;588352;237;65155;-61
2023/03/15 07:29:09;;;;;;;;;;;;;;;23.82;44.91;95576.19;588313;241;67398;-60
2023/03/15 07:31:36;;;;;;;;;;;;;;;23.82;43.38;95573.50;588324;241;65137;-60
2023/03/15 07:34:04;;;;;;;;;;;;;;;23.84;43.78;95573.16;588342;241;67290;-60
2023/03/15 07:36:31;;;;;;;;;;;;;;;23.83;43.53;95575.06;588345;241;67082;-62
2023/03/15 07:39:00;;;;;;;;;;;;;;;23.84;44.55;95567.80;588385;241;62914;-60
2023/03/15 07:41:28;;;;;;;;;;;;;;;23.84;42.08;95568.58;588252;241;67245;-60
2023/03/15 07:43:57;;;;;;;;;;;;;;;23.85;42.82;95566.70;585911;240;49133;-60
2023/03/15 07:46:25;;;;;;;;;;;;;;;23.86;43.56;95560.22;584532;242;65156;-60
2023/03/15 07:48:52;;;;;;;;;;;;;;;23.86;44.24;95554.85;584527;242;66733;-60
2023/03/15 07:51:20;;;;;;;;;;;;;;;23.87;44.51;95559.09;584490;242;66856;-66
2023/03/15 07:53:47;;;;;;;;;;;;;;;23.87;44.87;95556.41;584536;242;65113;-60
2023/03/15 07:56:15;;;;;;;;;;;;;;;23.91;44.14;95565.40;584465;242;68024;-60
2023/03/15 07:58:43;;;;;;;;;;;;;;;23.88;43.60;95563.38;584516;242;66928;-60
2023/03/15 08:01:10;;;;;;;;;;;;;;;23.87;43.02;95564.46;584504;242;65171;-60
2023/03/15 08:03:38;;;;;;;;;;;;;;;23.88;44.02;95566.05;584508;242;64666;-60
2023/03/15 08:06:05;;;;;;;;;;;;;;;23.88;45.96;95561.47;584487;242;66722;-61
2023/03/15 08:08:33;;;;;;;;;;;;;;;23.89;44.12;95562.25;584477;242;65097;-60
2023/03/15 08:11:00;;;;;;;;;;;;;;;23.90;44.75;95563.84;584484;242;67231;-66
2023/03/15 08:13:28;;;;;;;;;;;;;;;23.90;42.50;95566.52;584478;242;66920;-60
2023/03/15 08:15:55;;;;;;;;;;;;;;;23.90;44.55;95555.79;584479;242;62805;-60
2023/03/15 08:18:23;;;;;;;;;;;;;;;23.88;42.62;95556.10;584480;242;65306;-61
2023/03/15 08:20:51;;;;;;;;;;;;;;;23.89;41.36;95552.30;584492;242;64885;-60
2023/03/15 08:23:17;;;;;;;;;;;;;;;;;;584448;242;65084;-60
2023/03/15 08:25:45;;;;;;;;;;;;;;;23.90;45.23;95547.74;584541;242;66172;-60
2023/03/15 08:28:12;;;;;;;;;;;;;;;23.91;44.38;95543.94;584488;242;66889;-60
2023/03/15 08:30:40;;;;;;;;;;;;;;;23.89;47.70;95530.84;584453;242;65058;-61
2023/03/15 08:33:11;;;;;;;;;;;;;;;23.90;42.37;95531.64;584447;242;67113;-65
2023/03/15 08:35:40;;;;;;;;;;;;;;;23.91;43.11;95522.47;584529;242;67011;-65
2023/03/15 08:38:08;;;;;;;;;;;;;;;23.93;37.47;95518.36;593013;239;62906;-65
2023/03/15 08:40:37;;;;;;;;;;;;;;;23.99;45.17;95520.84;593055;239;67243;-62
2023/03/15 08:43:05;;;;;;;;;;;;;;;24.00;43.02;95515.14;593061;239;65303;-63
2023/03/15 08:45:32;;;;;;;;;;;;;;;24.01;42.93;95516.73;593029;239;63118;-64
2023/03/15 08:48:00;;;;;;;;;;;;;;;24.03;42.69;95509.12;593040;239;65091;-65
2023/03/15 08:50:30;;;;;;;;;;;;;;;24.05;43.22;95512.27;592919;239;66899;-64
2023/03/15 08:52:58;;;;;;;;;;;;;;;24.06;42.60;95507.68;593027;239;65071;-65
2023/03/15 08:55:25;;;;;;;;;;;;;;;24.08;43.31;95514.30;593040;239;65961;-65
2023/03/15 08:57:53;;;;;;;;;;;;;;;24.09;44.47;95502.47;593086;239;67076;-65
2023/03/15 09:00:23;;;;;;;;;;;;;;;24.10;44.57;95501.34;593031;239;63019;-67
2023/03/15 09:02:51;;;;;;;;;;;;;;;24.11;46.66;95505.59;593083;239;66803;-67
2023/03/15 09:05:19;;;;;;;;;;;;;;;24.10;43.78;95495.97;593033;239;64742;-66
2023/03/15 09:07:47;;;;;;;;;;;;;;;24.11;44.02;95502.91;593010;239;66206;-66
2023/03/15 09:10:15;;;;;;;;;;;;;;;24.12;43.66;95501.80;593079;239;67514;-63
2023/03/15 09:12:43;;;;;;;;;;;;;;;24.12;43.99;95504.49;593069;239;67395;-63
2023/03/15 09:15:11;;;;;;;;;;;;;;;24.15;42.93;95501.15;593045;239;65128;-64
2023/03/15 09:17:39;;;;;;;;;;;;;;;24.12;43.11;95506.39;593116;239;68118;-63
2023/03/15 09:20:13;;;;;;;;;;;;;;;24.09;43.47;95501.66;593078;239;65021;-62
2023/03/15 09:22:37;;;;;;;;;;;;;;;24.06;44.24;95500.44;592904;239;65099;-64
2023/03/15 09:25:04;;;;;;;;;;;;;;;24.03;43.26;95508.34;593103;239;67000;-62
2023/03/15 09:27:32;;;;;;;;;;;;;;;24.03;43.50;95506.44;593013;239;67035;-62
2023/03/15 09:30:00;;;;;;;;;;;;;;;24.03;42.95;95502.97;593105;239;65044;-61
2023/03/15 09:32:27;;;;;;;;;;;;;;;24.02;44.83;95507.55;593127;239;67230;-66
2023/03/15 09:34:55;;;;;;;;;;;;;;;24.02;45.63;95502.19;593037;239;67087;-61
2023/03/15 09:37:22;;;;;;;;;;;;;;;24.01;43.21;95500.62;591778;239;65084;-61
2023/03/15 09:39:50;;;;;;;;;;;;;;;24.01;43.01;95491.77;591233;240;67320;-61
2023/03/15 09:42:26;;;;;;;;;;;;;;;24.01;44.27;95484.53;591158;240;66843;-61
2023/03/15 09:45:10;;;;;;;;;;;;;;;24.00;43.35;95485.62;590752;240;65113;-61
2023/03/15 09:47:46;;;;;;;;;;;;;;;24.04;45.58;95475.82;591280;240;67294;-62
2023/03/15 09:50:21;;;;;;;;;;;;;;;24.04;43.95;95483.09;591155;240;67253;-62
2023/03/15 09:52:53;;;;;;;;;;;;;;;24.04;44.02;95483.88;591198;240;62881;-62
2023/03/15 09:55:24;;;;;;;;;;;;;;;24.05;40.24;95481.97;590981;240;67265;-62
2023/03/15 09:57:54;;;;;;;;;;;;;;;24.07;44.95;95490.48;591160;240;68189;-60
2023/03/15 10:00:23;;;;;;;;;;;;;;;24.08;46.22;95484.77;591201;240;63030;-62
2023/03/15 10:02:59;;;;;;;;;;;;;;;24.11;47.09;95475.28;586603;240;64935;-61
2023/03/15 10:05:40;;;;;;;;;;;;;;;24.08;44.54;95467.89;591157;240;66924;-62
2023/03/15 10:08:13;;;;;;;;;;;;;;;24.08;44.42;95479.41;591188;240;62942;-60
2023/03/15 10:10:54;;;;;;;;;;;;;;;24.07;44.80;95475.16;589832;240;66399;-62
2023/03/15 10:13:24;;;;;;;;;;;;;;;24.07;44.73;95461.74;591247;240;65002;-62
2023/03/15 10:16:09;;;;;;;;;;;;;;;24.07;43.79;95469.02;591247;240;62460;-61
2023/03/15 10:18:38;;;;;;;;;;;;;;;24.08;44.32;95462.53;591195;240;64701;-61
2023/03/15 10:21:08;;;;;;;;;;;;;;;24.08;45.46;95463.30;591282;240;67274;-61
2023/03/15 10:23:43;;;;;;;;;;;;;;;24.09;44.87;95464.08;590960;240;65078;-62
2023/03/15 10:26:12;;;;;;;;;;;;;;;24.08;44.87;95465.98;591104;239;65177;-62
2023/03/15 10:28:39;;;;;;;;;;;;;;;24.09;45.01;95472.95;591198;237;64976;-63
2023/03/15 10:31:09;;;;;;;;;;;;;;;24.09;45.53;95470.27;591195;240;65108;-64
2023/03/15 10:33:37;;;;;;;;;;;;;;;24.09;45.44;95459.53;590503;240;67289;-63
2023/03/15 10:36:18;;;;;;;;;;;;;;;24.11;45.28;95469.91;591246;240;67019;-64
2023/03/15 10:38:47;;;;;;;;;;;;;;;24.11;44.92;95464.55;591095;240;65074;-63
2023/03/15 10:41:16;;;;;;;;;;;;;;;24.11;43.40;95457.28;590794;240;65250;-63
2023/03/15 10:43:45;;;;;;;;;;;;;;;24.12;43.77;95452.72;590265;240;64947;-62
2023/03/15 10:46:14;;;;;;;;;;;;;;;24.12;44.88;95448.13;590253;240;62707;-66
2023/03/15 10:48:46;;;;;;;;;;;;;;;24.13;44.88;95451.59;590545;240;67270;-63
2023/03/15 10:51:18;;;;;;;;;;;;;;;24.14;44.79;95439.73;588437;240;67250;-62
2023/03/15 10:53:56;;;;;;;;;;;;;;;24.14;39.42;95445.91;590810;240;62962;-63
2023/03/15 10:56:28;;;;;;;;;;;;;;;24.17;44.74;95438.30;590835;240;67317;-63
2023/03/15 10:58:56;;;;;;;;;;;;;;;24.17;42.70;95433.70;590862;240;64931;-62
2023/03/15 11:01:25;;;;;;;;;;;;;;;24.17;45.77;95435.61;590813;240;65184;-64
2023/03/15 11:04:03;;;;;;;;;;;;;;;24.18;44.97;95429.14;590875;240;67355;-66
2023/03/15 11:06:32;;;;;;;;;;;;;;;24.17;43.55;95436.39;590680;240;66846;-63
2023/03/15 11:09:09;;;;;;;;;;;;;;;24.18;44.10;95429.92;590636;240;65316;-63
2023/03/15 11:11:53;;;;;;;;;;;;;;;24.18;44.43;95426.46;590822;240;64998;-62
2023/03/15 11:14:21;;;;;;;;;;;;;;;24.18;44.63;95418.41;590814;240;67406;-61
2023/03/15 11:16:50;;;;;;;;;;;;;;;24.19;43.91;95419.97;590782;240;65078;-62
2023/03/15 11:19:19;;;;;;;;;;;;;;;24.20;44.19;95422.33;590674;240;67402;-71
2023/03/15 11:21:49;;;;;;;;;;;;;;;24.19;41.75;95422.66;590842;240;67024;-65
2023/03/15 11:24:21;;;;;;;;;;;;;;;24.23;39.31;95431.62;590859;240;62947;-63
2023/03/15 11:26:52;;;;;;;;;;;;;;;24.21;43.05;95429.27;590703;240;64905;-71
2023/03/15 11:29:19;;;;;;;;;;;;;;;24.23;36.20;95434.31;590694;237;64981;-66
2023/03/15 11:31:47;;;;;;;;;;;;;;;24.29;36.95;95422.25;590619;240;62934;-64
2023/03/15 11:34:33;;;;;;;;;;;;;;;24.29;39.36;95430.30;590915;240;64837;-64
2023/03/15 11:37:02;;;;;;;;;;;;;;;24.31;43.64;95433.45;588184;240;64884;-64
2023/03/15 11:39:31;;;;;;;;;;;;;;;24.30;40.42;95427.27;585987;242;65104;-64
2023/03/15 11:42:03;;;;;;;;;;;;;;;24.30;44.03;95421.91;585803;242;67727;-64
2023/03/15 11:44:41;;;;;;;;;;;;;;;24.31;42.12;95425.39;585851;242;63684;-64
2023/03/15 11:47:29;;;;;;;;;;;;;;;24.29;40.21;95433.77;585972;242;64984;-63
2023/03/15 11:49:57;;;;;;;;;;;;;;;24.35;36.12;95427.06;585925;242;64950;-61
2023/03/15 11:52:27;;;;;;;;;;;;;;;24.33;41.85;95421.23;585988;242;68503;-61
2023/03/15 11:54:55;;;;;;;;;;;;;;;24.32;43.74;95419.68;585958;242;65062;-61
2023/03/15 11:57:31;;;;;;;;;;;;;;;24.31;43.07;95420.03;585965;242;66934;-62
2023/03/15 12:00:00;;;;;;;;;;;;;;;24.30;44.98;95413.84;586010;242;66967;-63
2023/03/15 12:02:29;;;;;;;;;;;;;;;24.36;37.01;95419.80;578465;242;62816;-63
2023/03/15 12:04:57;;;;;;;;;;;;;;;24.36;43.83;95422.48;585895;242;67085;-64
2023/03/15 12:07:30;;;;;;;;;;;;;;;24.33;42.74;95417.77;586021;242;68015;-63
2023/03/15 12:10:00;;;;;;;;;;;;;;;24.33;44.14;95420.45;585995;242;64994;-65
2023/03/15 12:12:29;;;;;;;;;;;;;;;24.31;43.67;95422.71;585244;242;66801;-65
2023/03/15 12:15:16;;;;;;;;;;;;;;;24.31;43.62;95418.13;585950;242;66750;-64
2023/03/15 12:17:45;;;;;;;;;;;;;;;24.30;45.72;95421.13;585269;242;65038;-65
2023/03/15 12:20:19;;;;;;;;;;;;;;;24.30;43.33;95426.49;585362;242;67961;-64
2023/03/15 12:22:51;;;;;;;;;;;;;;;24.28;42.59;95437.58;586960;238;64565;-64
2023/03/15 12:25:26;;;;;;;;;;;;;;;24.28;45.71;95434.08;589693;238;65156;-65
2023/03/15 12:27:55;;;;;;;;;;;;;;;24.29;43.94;95436.45;585644;242;64927;-64
2023/03/15 12:30:34;;;;;;;;;;;;;;;24.28;44.35;95442.14;585046;241;48715;-64
2023/03/15 12:33:03;;;;;;;;;;;;;;;24.28;45.51;95442.14;579589;244;66458;-66
2023/03/15 12:35:35;;;;;;;;;;;;;;;24.28;44.52;95442.14;579888;242;64999;-62
2023/03/15 12:38:02;;;;;;;;;;;;;;;24.29;44.64;95438.36;587307;240;66928;-64
2023/03/15 12:40:31;;;;;;;;;;;;;;;24.29;39.69;95441.82;587604;241;65024;-64
2023/03/15 12:43:00;;;;;;;;;;;;;;;24.31;44.19;95436.13;586192;239;67304;-63
2023/03/15 12:45:42;;;;;;;;;;;;;;;24.31;44.40;95441.50;593401;239;46826;-62
2023/03/15 12:48:11;;;;;;;;;;;;;;;24.29;43.68;95447.19;593789;239;64882;-64
2023/03/15 12:50:40;;;;;;;;;;;;;;;24.31;44.44;95449.55;593733;239;66980;-64
2023/03/15 12:53:15;;;;;;;;;;;;;;;24.29;41.87;95452.56;590859;239;64786;-65
2023/03/15 12:55:43;;;;;;;;;;;;;;;24.31;44.49;95455.70;590808;240;65179;-63
2023/03/15 12:58:12;;;;;;;;;;;;;;;24.33;44.93;95460.73;593094;239;67376;-62
2023/03/15 13:00:41;;;;;;;;;;;;;;;24.31;44.65;95458.39;593906;239;67068;-63
2023/03/15 13:03:20;;;;;;;;;;;;;;;24.32;45.15;95456.48;593795;239;63023;-64